createdAt,value
2022-08-20T00:03:59.260Z,3.55
2022-08-20T00:14:03.129Z,3.53
2022-08-20T00:24:04.542Z,3.60
2022-08-20T00:34:05.848Z,4.95
2022-08-20T00:44:07.283Z,3.35
2022-08-20T00:54:08.614Z,2.28
2022-08-20T01:04:11.128Z,3.55
2022-08-20T01:14:21.852Z,2.42
2022-08-20T01:24:23.181Z,3.63
2022-08-20T01:34:24.536Z,2.80
2022-08-20T01:44:25.930Z,2.97
2022-08-20T01:54:27.281Z,3.85
2022-08-20T02:04:28.649Z,3.53
2022-08-20T02:14:29.967Z,3.55
2022-08-20T02:24:31.413Z,3.10
2022-08-20T02:34:34.809Z,4.63
2022-08-20T02:44:36.191Z,4.97
2022-08-20T02:54:37.550Z,3.50
2022-08-20T03:04:38.864Z,4.07
2022-08-20T03:14:40.182Z,4.88
2022-08-20T03:24:41.562Z,4.32
2022-08-20T03:34:42.901Z,5.00
2022-08-20T03:44:44.242Z,4.72
2022-08-20T03:54:46.093Z,5.55
2022-08-20T04:04:47.465Z,5.65
2022-08-20T04:14:48.709Z,6.22
2022-08-20T04:24:50.974Z,5.38
2022-08-20T04:34:52.345Z,5.50
2022-08-20T04:44:53.617Z,7.20
2022-08-20T04:54:58.267Z,5.35
2022-08-20T05:04:59.607Z,5.53
2022-08-20T05:15:00.835Z,6.22
2022-08-20T05:25:02.594Z,8.95
2022-08-20T05:35:03.920Z,7.55
2022-08-20T05:45:05.272Z,5.90
2022-08-20T05:55:16.086Z,6.20
2022-08-20T06:05:17.472Z,5.75
2022-08-20T06:15:18.902Z,5.38
2022-08-20T06:25:20.384Z,6.68
2022-08-20T06:35:21.800Z,4.25
2022-08-20T06:45:24.521Z,5.15
2022-08-20T06:55:25.923Z,3.83
2022-08-20T07:05:27.247Z,5.88
2022-08-20T07:15:28.595Z,3.10
2022-08-20T07:25:29.982Z,4.75
2022-08-20T07:35:31.353Z,4.25
2022-08-20T07:45:32.783Z,4.57
2022-08-20T07:55:34.114Z,4.45
2022-08-20T08:05:35.461Z,3.17
2022-08-20T08:15:40.790Z,4.10
2022-08-20T08:25:46.012Z,3.33
2022-08-20T08:35:48.016Z,2.03
2022-08-20T08:45:49.350Z,2.10
2022-08-20T08:55:50.805Z,2.42
2022-08-20T09:05:52.272Z,4.25
2022-08-20T09:15:53.611Z,1.95
2022-08-20T09:25:54.953Z,1.15
2022-08-20T09:35:56.264Z,1.35
2022-08-20T09:45:57.686Z,1.88
2022-08-20T09:56:00.224Z,1.23
2022-08-20T10:06:01.564Z,1.33
2022-08-20T10:16:03.743Z,1.98
2022-08-20T10:26:05.095Z,1.20
2022-08-20T10:36:06.409Z,1.58
2022-08-20T10:46:07.789Z,1.00
2022-08-20T10:56:12.681Z,1.13
2022-08-20T11:06:16.393Z,1.05
2022-08-20T11:16:17.679Z,1.35
2022-08-20T11:26:18.944Z,0.90
2022-08-20T11:36:20.710Z,1.23
2022-08-20T11:46:26.545Z,1.38
2022-08-20T11:56:29.720Z,1.65
2022-08-20T12:06:31.474Z,1.77
2022-08-20T12:16:32.803Z,1.63
2022-08-20T12:26:34.207Z,1.00
2022-08-20T12:36:35.550Z,1.13
2022-08-20T12:46:36.915Z,0.43
2022-08-20T12:56:38.256Z,1.70
2022-08-20T13:06:39.587Z,3.13
2022-08-20T13:16:40.924Z,1.40
2022-08-20T13:26:42.252Z,2.05
2022-08-20T13:36:43.661Z,2.03
2022-08-20T13:46:45.140Z,4.55
2022-08-20T13:56:46.471Z,3.58
2022-08-20T14:06:47.961Z,2.85
2022-08-20T14:16:49.307Z,5.55
2022-08-20T14:26:50.723Z,2.53
2022-08-20T14:36:52.070Z,4.55
2022-08-20T14:46:53.379Z,4.25
2022-08-20T14:56:55.085Z,5.63
2022-08-20T15:06:56.412Z,2.03
2022-08-20T15:17:02.029Z,2.58
2022-08-20T15:27:03.398Z,6.13
2022-08-20T15:37:04.745Z,6.40
2022-08-20T15:47:06.004Z,3.72
2022-08-20T15:57:07.318Z,2.92
2022-08-20T16:07:08.663Z,4.70
2022-08-20T16:17:10.068Z,3.97
2022-08-20T16:27:12.603Z,2.55
2022-08-20T16:37:13.944Z,3.80
2022-08-20T16:47:15.886Z,3.13
2022-08-20T16:57:18.502Z,3.90
2022-08-20T17:07:19.835Z,3.90
2022-08-20T17:17:22.403Z,3.20
2022-08-20T17:27:23.748Z,3.85
2022-08-20T17:37:25.937Z,2.60
2022-08-20T17:47:27.332Z,4.38
2022-08-20T17:57:28.676Z,6.70
2022-08-20T18:07:30.488Z,4.57
2022-08-20T18:17:31.815Z,5.25
2022-08-20T18:27:33.094Z,9.13
2022-08-20T18:37:34.398Z,4.72
2022-08-20T18:47:35.674Z,5.07
2022-08-20T18:57:40.871Z,5.30
2022-08-20T19:07:48.573Z,4.50
2022-08-20T19:17:50.373Z,6.10
2022-08-20T19:27:51.863Z,4.25
2022-08-20T19:37:53.268Z,5.68
2022-08-20T19:47:54.627Z,6.30
2022-08-20T19:57:57.036Z,2.90
2022-08-20T20:07:58.423Z,3.70
2022-08-20T20:17:59.964Z,6.28
2022-08-20T20:28:01.251Z,5.18
2022-08-20T20:38:02.650Z,6.88
2022-08-20T20:48:03.988Z,6.35
2022-08-20T20:58:05.388Z,7.20
2022-08-20T21:08:06.711Z,9.18
2022-08-20T21:18:08.211Z,6.72
2022-08-20T21:28:09.552Z,5.10
2022-08-20T21:38:11.220Z,6.03
2022-08-20T21:58:17.091Z,5.70
2022-08-20T22:08:18.436Z,6.77
2022-08-20T22:18:19.820Z,4.57
2022-08-20T22:28:21.194Z,5.53
2022-08-20T22:38:22.543Z,5.80
2022-08-20T22:48:23.952Z,5.30
2022-08-20T22:58:31.432Z,4.95
2022-08-20T23:08:32.875Z,6.35
2022-08-20T23:18:34.219Z,4.18
2022-08-20T23:28:35.560Z,6.03
2022-08-20T23:38:37.011Z,5.93
2022-08-20T23:48:38.425Z,8.65
2022-08-20T23:58:40.012Z,5.50
